Weather at Caramambataí (Mapae) Airport

Public forecast

Using degrees Celsius for public forecast. Weather courtesy of forecast.io.

Closest aviation weather report (METAR) to Caramambataí (Mapae) Airport

Report is more than 6 hours old.

Closest report is Kamarang Airport, 44.6 nm (82.6 km) N. Retrieved 2020/12/24 12:00 UTC (1 month ago):

SYKM 241200Z 08004KT 5000 BR SCT015 SCT036 BKN070 22/20 ///// NOSIG

Closest aviation forecast (TAF) to Caramambataí (Mapae) Airport

Forecast is more than 6 hours old.

Closest forecast is Kamarang Airport, 44.6 nm (82.6 km) N. Retrieved 2021/01/26 12:00 UTC (8 hours ago):

TAF SYKM 261100Z 2612/2623 06008KT 9999 BKN018 BKN037 TEMPO 2620/2623 5000 SHRA BKN035